createdAt,value
2024-02-07T00:02:00.605Z,93949.41
2024-02-07T00:04:27.572Z,93954.03
2024-02-07T00:06:54.430Z,93953.63
2024-02-07T00:09:21.748Z,93947.69
2024-02-07T00:11:48.473Z,93953.66
2024-02-07T00:14:15.201Z,93946.19
2024-02-07T00:16:42.252Z,93947.66
2024-02-07T00:19:09.311Z,93933.22
2024-02-07T00:21:36.138Z,93940.28
2024-02-07T00:24:02.877Z,93928.69
2024-02-07T00:26:29.745Z,93929.00
2024-02-07T00:28:56.756Z,93928.09
2024-02-07T00:31:23.851Z,93927.03
2024-02-07T00:33:50.645Z,93925.44
2024-02-07T00:36:18.259Z,93924.88
2024-02-07T00:38:45.238Z,93911.03
2024-02-07T00:41:25.535Z,93927.72
2024-02-07T00:43:54.616Z,93927.81
2024-02-07T00:46:21.750Z,93918.09
2024-02-07T00:48:48.825Z,93896.59
2024-02-07T00:51:15.905Z,93895.88
2024-02-07T00:53:43.303Z,93913.56
2024-02-07T00:56:10.237Z,93912.59
2024-02-07T00:58:37.109Z,93885.69
2024-02-07T01:01:05.221Z,93904.75
2024-02-07T01:03:33.084Z,93898.47
2024-02-07T01:06:00.375Z,93896.19
2024-02-07T01:08:27.244Z,93911.59
2024-02-07T01:10:54.355Z,93908.78
2024-02-07T01:13:21.225Z,93889.72
2024-02-07T01:15:48.166Z,93893.44
2024-02-07T01:18:14.913Z,93894.72
2024-02-07T01:20:42.254Z,93899.34
2024-02-07T01:23:09.607Z,93892.34
2024-02-07T01:25:36.700Z,93890.97
2024-02-07T01:28:04.082Z,93889.19
2024-02-07T01:30:30.828Z,93903.75
2024-02-07T01:32:57.661Z,93899.81
2024-02-07T01:35:25.068Z,93905.44
2024-02-07T01:37:52.282Z,93896.69
2024-02-07T01:40:19.089Z,93895.69
2024-02-07T01:42:45.778Z,93894.41
2024-02-07T01:45:29.191Z,93889.41
2024-02-07T01:47:57.069Z,93890.06
2024-02-07T01:50:25.085Z,93871.72
2024-02-07T01:52:55.489Z,93897.44
2024-02-07T01:55:23.156Z,93893.22
2024-02-07T01:57:50.231Z,93885.06
2024-02-07T02:00:17.711Z,93881.34
2024-02-07T02:02:49.727Z,93880.56
2024-02-07T02:05:16.699Z,93867.00
2024-02-07T02:07:44.881Z,93868.50
2024-02-07T02:10:14.476Z,93871.03
2024-02-07T02:12:43.314Z,93874.09
2024-02-07T02:15:10.245Z,93856.19
2024-02-07T02:17:37.362Z,93867.00
2024-02-07T02:20:06.403Z,93867.00
2024-02-07T02:22:33.358Z,93858.97
2024-02-07T02:25:28.972Z,93843.75
2024-02-07T02:28:19.966Z,93859.19
2024-02-07T02:30:52.323Z,93842.00
2024-02-07T02:33:20.143Z,93851.44
2024-02-07T02:35:48.230Z,93838.16
2024-02-07T02:38:16.524Z,93831.22
2024-02-07T02:40:44.524Z,93813.03
2024-02-07T02:43:11.601Z,93820.91
2024-02-07T02:45:38.438Z,93813.25
2024-02-07T02:48:05.923Z,93812.63
2024-02-07T02:50:33.382Z,93819.81
2024-02-07T02:53:00.665Z,93813.13
2024-02-07T02:55:28.573Z,93817.34
2024-02-07T02:58:01.804Z,93806.75
2024-02-07T03:00:29.223Z,93801.94
2024-02-07T03:02:57.677Z,93796.66
2024-02-07T03:05:43.979Z,93796.16
2024-02-07T03:08:30.378Z,93790.47
2024-02-07T03:10:57.280Z,93787.53
2024-02-07T03:13:25.897Z,93790.66
2024-02-07T03:15:53.537Z,93780.22
2024-02-07T03:18:21.864Z,93777.09
2024-02-07T03:20:50.947Z,93778.84
2024-02-07T03:23:18.845Z,93766.69
2024-02-07T03:25:46.219Z,93767.66
2024-02-07T03:28:16.613Z,93776.09
2024-02-07T03:30:43.641Z,93768.75
2024-02-07T03:33:10.634Z,93758.81
2024-02-07T03:35:38.541Z,93756.16
2024-02-07T03:38:05.377Z,93743.41
2024-02-07T03:40:32.524Z,93737.03
2024-02-07T03:43:00.125Z,93745.47
2024-02-07T03:45:26.976Z,93734.66
2024-02-07T03:47:53.785Z,93734.19
2024-02-07T03:50:26.926Z,93743.91
2024-02-07T03:52:56.286Z,93746.06
2024-02-07T03:55:23.145Z,93745.28
2024-02-07T03:57:50.470Z,93740.75
2024-02-07T04:00:18.177Z,93744.19
2024-02-07T04:02:49.230Z,93745.47
2024-02-07T04:05:19.661Z,93739.66
2024-02-07T04:07:46.890Z,93739.88
2024-02-07T04:10:13.917Z,93737.72
2024-02-07T04:12:41.372Z,93733.34
2024-02-07T04:15:27.977Z,93729.44
2024-02-07T04:18:14.598Z,93739.13
2024-02-07T04:21:08.074Z,93729.31
2024-02-07T04:23:53.964Z,93729.81
2024-02-07T04:26:47.941Z,93726.06
2024-02-07T04:29:33.781Z,93732.16
2024-02-07T04:32:19.188Z,93736.56
2024-02-07T04:35:04.661Z,93735.69
2024-02-07T04:37:50.220Z,93725.00
2024-02-07T04:40:35.795Z,93730.00
2024-02-07T04:43:21.332Z,93727.44
2024-02-07T04:46:06.809Z,93718.72
2024-02-07T04:48:52.161Z,93740.13
2024-02-07T04:51:37.457Z,93732.66
2024-02-07T04:54:22.767Z,93728.31
2024-02-07T04:57:07.803Z,93722.22
2024-02-07T04:59:53.093Z,93718.31
2024-02-07T05:02:38.366Z,93718.00
2024-02-07T05:05:24.113Z,93709.56
2024-02-07T05:08:09.476Z,93719.56
2024-02-07T05:10:54.927Z,93716.94
2024-02-07T05:13:40.493Z,93705.03
2024-02-07T05:16:14.078Z,93693.06
2024-02-07T05:18:41.960Z,93691.09
2024-02-07T05:21:14.238Z,93693.28
2024-02-07T05:23:41.497Z,93684.22
2024-02-07T05:26:08.986Z,93696.81
2024-02-07T05:28:35.752Z,93695.75
2024-02-07T05:31:02.406Z,93687.19
2024-02-07T05:33:29.635Z,93682.03
2024-02-07T05:35:56.565Z,93692.78
2024-02-07T05:38:24.381Z,93687.19
2024-02-07T05:40:51.121Z,93681.88
2024-02-07T05:43:17.986Z,93681.41
2024-02-07T05:45:44.715Z,93677.66
2024-02-07T05:48:11.462Z,93679.81
2024-02-07T05:50:38.190Z,93689.06
2024-02-07T05:53:05.102Z,93678.25
2024-02-07T05:55:31.973Z,93688.88
2024-02-07T05:57:58.713Z,93682.19
2024-02-07T06:00:25.416Z,93685.13
2024-02-07T06:02:52.144Z,93679.66
2024-02-07T06:05:20.263Z,93678.41
2024-02-07T06:07:47.244Z,93666.72
2024-02-07T06:10:14.242Z,93663.50
2024-02-07T06:12:46.038Z,93664.69
2024-02-07T06:15:13.077Z,93671.06
2024-02-07T06:17:40.483Z,93678.22
2024-02-07T06:20:09.933Z,93673.56
2024-02-07T06:22:37.556Z,93671.53
2024-02-07T06:25:07.635Z,93683.44
2024-02-07T06:27:34.516Z,93677.03
2024-02-07T06:30:01.400Z,93675.97
2024-02-07T06:32:28.191Z,93668.00
2024-02-07T06:34:55.054Z,93667.22
2024-02-07T06:37:21.889Z,93659.16
2024-02-07T06:39:48.659Z,93663.19
2024-02-07T06:42:15.394Z,93652.00
2024-02-07T06:44:42.096Z,93669.47
2024-02-07T06:47:08.763Z,93647.28
2024-02-07T06:49:38.522Z,93659.53
2024-02-07T06:52:05.830Z,93664.94
2024-02-07T06:54:32.612Z,93650.91
2024-02-07T06:56:59.441Z,93650.63
2024-02-07T06:59:26.206Z,93655.50
2024-02-07T07:01:52.986Z,93652.38
2024-02-07T07:04:19.832Z,93649.09
2024-02-07T07:06:46.590Z,93650.84
2024-02-07T07:09:13.444Z,93643.69
2024-02-07T07:11:40.221Z,93634.63
2024-02-07T07:14:07.006Z,93625.47
2024-02-07T07:16:33.860Z,93626.63
2024-02-07T07:19:01.287Z,93619.47
2024-02-07T07:21:29.464Z,93631.00
2024-02-07T07:23:56.385Z,93634.50
2024-02-07T07:26:25.044Z,93623.81
2024-02-07T07:28:52.173Z,93624.91
2024-02-07T07:31:18.987Z,93624.38
2024-02-07T07:33:45.687Z,93610.16
2024-02-07T07:36:19.217Z,93614.25
2024-02-07T07:38:46.081Z,93619.91
2024-02-07T07:41:12.789Z,93620.06
2024-02-07T07:43:39.547Z,93618.00
2024-02-07T07:46:06.612Z,93618.78
2024-02-07T07:48:33.585Z,93613.47
2024-02-07T07:51:00.455Z,93613.16
2024-02-07T07:53:27.177Z,93613.78
2024-02-07T07:55:53.978Z,93602.25
2024-02-07T07:58:25.144Z,93614.63
2024-02-07T08:00:55.531Z,93609.63
2024-02-07T08:03:22.301Z,93620.13
2024-02-07T08:05:49.152Z,93619.03
2024-02-07T08:08:16.035Z,93614.47
2024-02-07T08:10:43.622Z,93619.63
2024-02-07T08:13:10.312Z,93613.78
2024-02-07T08:15:36.984Z,93607.88
2024-02-07T08:18:04.240Z,93605.03
2024-02-07T08:20:30.972Z,93610.97
2024-02-07T08:22:57.804Z,93619.56
2024-02-07T08:25:24.597Z,93603.63
2024-02-07T08:27:51.292Z,93598.47
2024-02-07T08:30:18.166Z,93619.91
2024-02-07T08:32:44.807Z,93603.66
2024-02-07T08:35:11.721Z,93610.66
2024-02-07T08:37:38.926Z,93618.19
2024-02-07T08:40:06.560Z,93610.84
2024-02-07T08:42:36.110Z,93607.56
2024-02-07T08:45:03.682Z,93611.47
2024-02-07T08:47:30.808Z,93611.19
2024-02-07T08:49:57.508Z,93607.25
2024-02-07T08:52:24.654Z,93601.03
2024-02-07T08:54:51.404Z,93604.63
2024-02-07T08:57:18.044Z,93600.56
2024-02-07T08:59:46.176Z,93606.97
2024-02-07T09:02:14.332Z,93599.00
2024-02-07T09:04:41.220Z,93605.72
2024-02-07T09:07:07.997Z,93595.53
2024-02-07T09:09:34.610Z,93591.63
2024-02-07T09:12:01.273Z,93594.94
2024-02-07T09:14:27.990Z,93591.31
2024-02-07T09:16:54.743Z,93580.88
2024-02-07T09:19:21.528Z,93584.13
2024-02-07T09:21:48.178Z,93584.28
2024-02-07T09:24:14.937Z,93599.94
2024-02-07T09:26:41.605Z,93591.78
2024-02-07T09:29:08.605Z,93593.34
2024-02-07T09:31:35.296Z,93593.03
2024-02-07T09:34:02.092Z,93580.53
2024-02-07T09:36:28.970Z,93565.06
2024-02-07T09:38:55.709Z,93578.50
2024-02-07T09:41:24.491Z,93584.59
2024-02-07T09:43:52.704Z,93576.31
2024-02-07T09:46:22.690Z,93584.75
2024-02-07T09:48:51.302Z,93591.78
2024-02-07T09:51:19.918Z,93576.41
2024-02-07T09:53:47.494Z,93577.34
2024-02-07T09:56:16.089Z,93567.19
2024-02-07T09:58:46.284Z,93569.53
2024-02-07T10:01:14.970Z,93578.44
2024-02-07T10:03:46.834Z,93573.69
2024-02-07T10:06:14.487Z,93559.34
2024-02-07T10:08:47.938Z,93568.69
2024-02-07T10:11:15.643Z,93576.47
2024-02-07T10:13:42.538Z,93558.75
2024-02-07T10:16:10.385Z,93564.50
2024-02-07T10:18:37.254Z,93559.22
2024-02-07T10:21:04.737Z,93560.94
2024-02-07T10:23:34.729Z,93561.09
2024-02-07T10:26:01.778Z,93571.34
2024-02-07T10:28:29.254Z,93555.19
2024-02-07T10:30:59.996Z,93531.00
2024-02-07T10:33:41.962Z,93545.53
2024-02-07T10:36:10.070Z,93542.59
2024-02-07T10:38:37.109Z,93548.66
2024-02-07T10:41:04.434Z,93548.72
2024-02-07T10:43:37.188Z,93541.31
2024-02-07T10:46:07.067Z,93541.00
2024-02-07T10:48:35.989Z,93538.19
2024-02-07T10:51:04.212Z,93542.38
2024-02-07T10:53:32.006Z,93525.19
2024-02-07T10:56:03.256Z,93503.88
2024-02-07T10:58:30.925Z,93515.25
2024-02-07T11:00:58.416Z,93512.59
2024-02-07T11:03:27.513Z,93510.03
2024-02-07T11:05:54.352Z,93504.44
2024-02-07T11:08:21.169Z,93498.31
2024-02-07T11:10:48.655Z,93486.84
2024-02-07T11:13:15.785Z,93496.41
2024-02-07T11:15:42.732Z,93476.31
2024-02-07T11:18:12.830Z,93475.28
2024-02-07T11:20:41.565Z,93460.59
2024-02-07T11:23:15.923Z,93469.03
2024-02-07T11:25:45.070Z,93465.47
2024-02-07T11:28:11.980Z,93461.75
2024-02-07T11:30:38.823Z,93434.28
2024-02-07T11:33:05.750Z,93471.66
2024-02-07T11:35:35.970Z,93460.75
2024-02-07T11:38:04.088Z,93455.88
2024-02-07T11:40:41.884Z,93448.31
2024-02-07T11:43:11.837Z,93442.09
2024-02-07T11:45:39.176Z,93450.88
2024-02-07T11:48:24.756Z,93450.03
2024-02-07T11:50:53.381Z,93421.91
2024-02-07T11:53:27.143Z,93425.34
2024-02-07T11:55:53.997Z,93429.47
2024-02-07T11:58:24.163Z,93440.38
2024-02-07T12:00:51.378Z,93422.34
2024-02-07T12:03:19.451Z,93427.13
2024-02-07T12:05:47.432Z,93425.22
2024-02-07T12:08:15.899Z,93419.69
2024-02-07T12:10:42.959Z,93410.44
2024-02-07T12:13:11.906Z,93396.88
2024-02-07T12:15:38.817Z,93405.56
2024-02-07T12:18:09.750Z,93401.00
2024-02-07T12:20:38.740Z,93403.44
2024-02-07T12:23:07.568Z,93403.34
2024-02-07T12:25:34.538Z,93409.56
2024-02-07T12:28:18.394Z,93405.34
2024-02-07T12:30:45.079Z,93397.09
2024-02-07T12:33:12.809Z,93397.31
2024-02-07T12:35:50.596Z,93389.97
2024-02-07T12:38:17.853Z,93389.97
2024-02-07T12:40:47.489Z,93391.97
2024-02-07T12:43:14.868Z,93388.31
2024-02-07T12:45:41.549Z,93381.88
2024-02-07T12:48:08.625Z,93375.41
2024-02-07T12:50:35.470Z,93370.75
2024-02-07T12:53:02.297Z,93367.09
2024-02-07T12:55:29.138Z,93377.50
2024-02-07T12:58:03.244Z,93366.31
2024-02-07T13:00:30.096Z,93367.41
2024-02-07T13:02:57.260Z,93356.41
2024-02-07T13:05:24.538Z,93358.84
2024-02-07T13:07:52.108Z,93358.38
2024-02-07T13:10:18.981Z,93355.63
2024-02-07T13:12:45.704Z,93358.72
2024-02-07T13:15:18.107Z,93355.28
2024-02-07T13:17:46.261Z,93342.06
2024-02-07T13:20:13.323Z,93336.94
2024-02-07T13:22:40.607Z,93350.63
2024-02-07T13:25:12.222Z,93334.03
2024-02-07T13:27:40.155Z,93343.47
2024-02-07T13:30:08.348Z,93342.69
2024-02-07T13:32:35.566Z,93334.94
2024-02-07T13:35:02.836Z,93336.50
2024-02-07T13:37:29.683Z,93337.50
2024-02-07T13:39:57.448Z,93336.50
2024-02-07T13:42:24.228Z,93328.91
2024-02-07T13:44:50.998Z,93335.13
2024-02-07T13:47:19.180Z,93341.91
2024-02-07T13:49:46.072Z,93322.44
2024-02-07T13:52:12.991Z,93323.22
2024-02-07T13:54:39.728Z,93304.88
2024-02-07T13:57:06.729Z,93331.69
2024-02-07T13:59:33.409Z,93317.56
2024-02-07T14:02:02.389Z,93315.22
2024-02-07T14:04:29.373Z,93307.91
2024-02-07T14:06:56.290Z,93315.91
2024-02-07T14:09:23.054Z,93313.25
2024-02-07T14:11:49.914Z,93304.78
2024-02-07T14:14:16.709Z,93312.22
2024-02-07T14:16:43.575Z,93304.19
2024-02-07T14:19:10.305Z,93311.44
2024-02-07T14:21:37.054Z,93309.22
2024-02-07T14:24:05.018Z,93317.78
2024-02-07T14:26:32.802Z,93306.66
2024-02-07T14:28:59.842Z,93307.09
2024-02-07T14:31:26.957Z,93308.66
2024-02-07T14:33:53.754Z,93307.53
2024-02-07T14:36:23.365Z,93299.97
2024-02-07T14:38:50.284Z,93305.88
2024-02-07T14:41:17.598Z,93288.50
2024-02-07T14:43:44.629Z,93296.72
2024-02-07T14:46:14.295Z,93298.81
2024-02-07T14:48:43.305Z,93304.59
2024-02-07T14:51:10.142Z,93298.03
2024-02-07T14:53:36.940Z,93308.50
2024-02-07T14:56:04.699Z,93306.16
2024-02-07T14:58:31.502Z,93289.91
2024-02-07T15:00:58.623Z,93288.69
2024-02-07T15:03:25.568Z,93294.41
2024-02-07T15:05:53.311Z,93281.06
2024-02-07T15:08:20.292Z,93283.19
2024-02-07T15:10:47.128Z,93281.22
2024-02-07T15:13:14.167Z,93273.09
2024-02-07T15:15:43.168Z,93284.44
2024-02-07T15:18:11.696Z,93274.31
2024-02-07T15:20:38.840Z,93273.31
2024-02-07T15:23:05.605Z,93269.88
2024-02-07T15:25:32.665Z,93260.22
2024-02-07T15:27:59.593Z,93264.00
2024-02-07T15:30:26.461Z,93257.78
2024-02-07T15:32:53.327Z,93261.00
2024-02-07T15:35:20.273Z,93258.22
2024-02-07T15:37:47.185Z,93256.66
2024-02-07T15:40:13.976Z,93258.22
2024-02-07T15:42:40.722Z,93257.00
2024-02-07T15:45:08.555Z,93257.78
2024-02-07T15:47:36.060Z,93249.09
2024-02-07T15:50:03.967Z,93246.41
2024-02-07T15:52:31.123Z,93243.88
2024-02-07T15:54:57.879Z,93243.19
2024-02-07T15:57:24.674Z,93241.31
2024-02-07T15:59:51.385Z,93241.66
2024-02-07T16:02:18.210Z,93243.88
2024-02-07T16:04:45.083Z,93239.97
2024-02-07T16:07:12.257Z,93239.66
2024-02-07T16:09:39.682Z,93234.63
2024-02-07T16:12:06.734Z,93228.97
2024-02-07T16:14:33.481Z,93232.41
2024-02-07T16:17:00.313Z,93225.53
2024-02-07T16:19:27.252Z,93222.41
2024-02-07T16:21:55.899Z,93228.84
2024-02-07T16:24:26.076Z,93226.88
2024-02-07T16:26:54.509Z,93226.09
2024-02-07T16:29:22.053Z,93219.22
2024-02-07T16:31:49.084Z,93222.66
2024-02-07T16:34:15.874Z,93208.44
2024-02-07T16:36:43.417Z,93224.88
2024-02-07T16:39:12.219Z,93226.66
2024-02-07T16:41:39.216Z,93221.31
2024-02-07T16:44:06.816Z,93216.22
2024-02-07T16:46:33.642Z,93222.66
2024-02-07T16:49:03.419Z,93223.44
2024-02-07T16:51:31.161Z,93219.53
2024-02-07T16:53:58.965Z,93220.19
2024-02-07T16:56:26.347Z,93214.09
2024-02-07T16:58:53.347Z,93218.22
2024-02-07T17:01:24.255Z,93213.56
2024-02-07T17:03:51.405Z,93221.13
2024-02-07T17:06:19.038Z,93225.34
2024-02-07T17:08:45.913Z,93222.22
2024-02-07T17:11:12.754Z,93225.00
2024-02-07T17:13:39.546Z,93220.88
2024-02-07T17:16:09.010Z,93215.75
2024-02-07T17:18:36.068Z,93221.09
2024-02-07T17:21:03.386Z,93235.53
2024-02-07T17:23:31.482Z,93228.09
2024-02-07T17:25:58.934Z,93230.31
2024-02-07T17:28:27.099Z,93233.97
2024-02-07T17:30:54.114Z,93222.09
2024-02-07T17:33:21.168Z,93222.22
2024-02-07T17:35:48.032Z,93220.28
2024-02-07T17:38:15.344Z,93219.09
2024-02-07T17:40:42.901Z,93213.66
2024-02-07T17:43:09.679Z,93222.28
2024-02-07T17:45:36.421Z,93219.97
2024-02-07T17:48:03.476Z,93210.41
2024-02-07T17:50:34.933Z,93215.75
2024-02-07T17:53:04.455Z,93219.84
2024-02-07T17:55:31.823Z,93209.06
2024-02-07T17:57:58.531Z,93213.59
2024-02-07T18:00:25.327Z,93210.16
2024-02-07T18:02:52.209Z,93207.28
2024-02-07T18:05:24.340Z,93199.28
2024-02-07T18:07:54.092Z,93202.41
2024-02-07T18:10:21.478Z,93195.53
2024-02-07T18:12:48.649Z,93198.50
2024-02-07T18:15:16.261Z,93201.97
2024-02-07T18:17:43.031Z,93191.97
2024-02-07T18:20:10.690Z,93189.63
2024-02-07T18:22:37.668Z,93194.81
2024-02-07T18:25:05.030Z,93189.03
2024-02-07T18:27:31.886Z,93185.59
2024-02-07T18:29:58.665Z,93178.72
2024-02-07T18:32:28.349Z,93186.38
2024-02-07T18:34:55.937Z,93177.03
2024-02-07T18:37:23.351Z,93175.47
2024-02-07T18:39:51.297Z,93173.59
2024-02-07T18:42:18.146Z,93175.16
2024-02-07T18:44:44.825Z,93180.81
2024-02-07T18:47:11.525Z,93177.59
2024-02-07T18:49:38.303Z,93173.25
2024-02-07T18:52:05.507Z,93176.03
2024-02-07T18:54:32.175Z,93165.41
2024-02-07T18:56:58.926Z,93159.28
2024-02-07T18:59:25.645Z,93167.94
2024-02-07T19:01:52.435Z,93162.94
2024-02-07T19:04:19.416Z,93160.16
2024-02-07T19:06:46.395Z,93151.06
2024-02-07T19:09:13.179Z,93152.16
2024-02-07T19:11:39.856Z,93152.28
2024-02-07T19:14:06.604Z,93141.19
2024-02-07T19:16:33.526Z,93136.50
2024-02-07T19:19:00.398Z,93142.16
2024-02-07T19:21:28.385Z,93134.19
2024-02-07T19:23:55.167Z,93129.94
2024-02-07T19:26:22.108Z,93135.25
2024-02-07T19:28:48.949Z,93129.06
2024-02-07T19:31:15.722Z,93130.59
2024-02-07T19:33:42.522Z,93132.13
2024-02-07T19:36:11.628Z,93126.03
2024-02-07T19:38:38.455Z,93133.69
2024-02-07T19:41:05.336Z,93126.03
2024-02-07T19:43:32.135Z,93125.28
2024-02-07T19:45:58.885Z,93128.28
2024-02-07T19:48:25.668Z,93123.28
2024-02-07T19:50:52.359Z,93112.31
2024-02-07T19:53:19.034Z,93117.19
2024-02-07T19:55:45.734Z,93112.97
2024-02-07T19:58:15.649Z,93109.06
2024-02-07T20:00:42.929Z,93110.94
2024-02-07T20:03:09.835Z,93110.94
2024-02-07T20:05:37.346Z,93114.72
2024-02-07T20:08:05.199Z,93109.06
2024-02-07T20:10:32.202Z,93107.50
2024-02-07T20:12:58.916Z,93107.84
2024-02-07T20:15:26.630Z,93112.84
2024-02-07T20:17:53.624Z,93103.94
2024-02-07T20:20:20.776Z,93116.59
2024-02-07T20:22:47.635Z,93102.50
2024-02-07T20:25:14.638Z,93101.28
2024-02-07T20:27:41.366Z,93106.72
2024-02-07T20:30:08.594Z,93113.50
2024-02-07T20:32:35.343Z,93109.59
2024-02-07T20:35:02.713Z,93099.16
2024-02-07T20:37:29.568Z,93099.47
2024-02-07T20:39:56.247Z,93104.47
2024-02-07T20:42:22.990Z,93099.16
2024-02-07T20:44:49.740Z,93091.94
2024-02-07T20:47:16.511Z,93100.59
2024-02-07T20:49:43.412Z,93101.72
2024-02-07T20:52:10.273Z,93094.06
2024-02-07T20:54:38.235Z,93099.47
2024-02-07T20:57:05.674Z,93092.19
2024-02-07T20:59:32.390Z,93096.03
2024-02-07T21:01:59.165Z,93092.59
2024-02-07T21:04:25.986Z,93079.72
2024-02-07T21:06:52.780Z,93070.38
2024-02-07T21:09:19.443Z,93075.63
2024-02-07T21:11:46.131Z,93084.06
2024-02-07T21:14:12.886Z,93079.41
2024-02-07T21:16:39.608Z,93074.22
2024-02-07T21:19:06.381Z,93078.41
2024-02-07T21:21:33.173Z,93085.31
2024-02-07T21:23:59.872Z,93075.75
2024-02-07T21:26:26.616Z,93071.53
2024-02-07T21:28:53.466Z,93073.09
2024-02-07T21:31:20.212Z,93068.63
2024-02-07T21:33:48.239Z,93070.19
2024-02-07T21:36:15.006Z,93061.63
2024-02-07T21:38:41.679Z,93063.19
2024-02-07T21:41:08.546Z,93053.66
2024-02-07T21:43:35.405Z,93058.66
2024-02-07T21:46:03.682Z,93058.66
2024-02-07T21:48:30.394Z,93059.41
2024-02-07T21:50:57.190Z,93049.09
2024-02-07T21:53:25.243Z,93059.53
2024-02-07T21:55:54.730Z,93056.44
2024-02-07T21:58:22.497Z,93056.44
2024-02-07T22:00:49.345Z,93059.09
2024-02-07T22:03:16.126Z,93057.22
2024-02-07T22:05:42.841Z,93043.78
2024-02-07T22:08:09.754Z,93058.00
2024-02-07T22:10:36.700Z,93058.78
2024-02-07T22:13:03.575Z,93047.22
2024-02-07T22:15:31.110Z,93053.78
2024-02-07T22:17:57.953Z,93056.44
2024-02-07T22:20:24.800Z,93059.41
2024-02-07T22:22:51.625Z,93047.00
2024-02-07T22:25:18.483Z,93054.75
2024-02-07T22:27:45.233Z,93062.09
2024-02-07T22:30:12.797Z,93058.66
2024-02-07T22:32:39.673Z,93048.53
2024-02-07T22:35:06.613Z,93051.78
2024-02-07T22:37:35.711Z,93044.00
2024-02-07T22:40:03.552Z,93038.91
2024-02-07T22:42:30.319Z,93040.03
2024-02-07T22:44:57.052Z,93020.47
2024-02-07T22:47:23.772Z,93036.91
2024-02-07T22:49:50.741Z,93031.81
2024-02-07T22:52:17.517Z,93040.66
2024-02-07T22:54:45.380Z,93033.56
2024-02-07T22:57:12.047Z,93025.47
2024-02-07T22:59:38.754Z,93042.69
2024-02-07T23:02:05.886Z,93034.38
2024-02-07T23:04:33.077Z,93036.91
2024-02-07T23:07:02.820Z,93043.13
2024-02-07T23:09:29.543Z,93048.44
2024-02-07T23:11:56.286Z,93050.00
2024-02-07T23:14:23.110Z,93030.81
2024-02-07T23:16:50.960Z,93022.63
2024-02-07T23:19:17.750Z,93047.59
2024-02-07T23:21:47.783Z,93046.25
2024-02-07T23:24:14.490Z,93046.25
2024-02-07T23:26:41.225Z,93038.91
2024-02-07T23:29:08.092Z,93052.78
2024-02-07T23:31:34.863Z,93058.78
2024-02-07T23:34:02.193Z,93052.91
2024-02-07T23:36:28.955Z,93045.47
2024-02-07T23:38:56.229Z,93054.47
2024-02-07T23:41:22.949Z,93046.81
2024-02-07T23:43:49.974Z,93052.91
2024-02-07T23:46:16.859Z,93038.06
2024-02-07T23:48:43.862Z,93042.72
2024-02-07T23:51:10.914Z,93046.16
2024-02-07T23:53:37.636Z,93039.59
2024-02-07T23:56:04.948Z,93041.81
2024-02-07T23:58:31.765Z,93044.03
